createdAt,value
2016-08-14T00:00:57.658Z,0.00
2016-08-14T00:01:58.173Z,0.00
2016-08-14T00:02:58.698Z,0.00
2016-08-14T00:03:59.230Z,0.00
2016-08-14T00:04:59.633Z,0.00
2016-08-14T00:06:00.304Z,0.00
2016-08-14T00:07:01.102Z,0.00
2016-08-14T00:08:01.637Z,0.00
2016-08-14T00:09:01.868Z,0.00
2016-08-14T00:10:02.547Z,0.00
2016-08-14T00:11:03.065Z,0.00
2016-08-14T00:12:03.589Z,0.00
2016-08-14T00:13:03.990Z,0.00
2016-08-14T00:14:04.674Z,0.00
2016-08-14T00:15:05.065Z,0.00
2016-08-14T00:16:05.696Z,0.00
2016-08-14T00:17:06.236Z,0.00
2016-08-14T00:18:06.622Z,0.00
2016-08-14T00:19:07.284Z,0.00
2016-08-14T00:20:07.827Z,0.00
2016-08-14T00:21:08.070Z,0.00
2016-08-14T00:22:08.898Z,0.00
2016-08-14T00:23:09.125Z,0.00
2016-08-14T00:24:10.082Z,0.00
2016-08-14T00:25:10.479Z,0.00
2016-08-14T00:26:10.840Z,0.00
2016-08-14T00:27:11.560Z,0.00
2016-08-14T00:28:12.034Z,0.00
2016-08-14T00:29:12.564Z,0.00
2016-08-14T00:30:13.146Z,0.00
2016-08-14T00:31:13.476Z,0.00
2016-08-14T00:32:14.144Z,0.00
2016-08-14T00:33:14.519Z,0.00
2016-08-14T00:34:15.224Z,0.00
2016-08-14T00:35:15.746Z,0.00
2016-08-14T00:36:16.255Z,0.00
2016-08-14T00:37:16.653Z,0.00
2016-08-14T00:38:17.331Z,0.00
2016-08-14T00:39:17.693Z,0.00
2016-08-14T00:40:18.364Z,0.00
2016-08-14T00:41:18.766Z,0.00
2016-08-14T00:42:19.133Z,0.00
2016-08-14T00:43:19.675Z,0.00
2016-08-14T00:44:20.336Z,0.00
2016-08-14T00:45:20.732Z,0.00
2016-08-14T00:46:21.385Z,0.00
2016-08-14T00:47:24.913Z,0.00
2016-08-14T00:48:22.456Z,0.00
2016-08-14T00:49:22.992Z,0.00
2016-08-14T00:50:25.471Z,0.00
2016-08-14T00:51:24.069Z,0.00
2016-08-14T00:52:24.696Z,0.00
2016-08-14T00:53:25.102Z,0.00
2016-08-14T00:54:25.637Z,0.00
2016-08-14T00:55:26.148Z,0.00
2016-08-14T00:56:26.805Z,0.00
2016-08-14T00:57:27.188Z,0.00
2016-08-14T00:58:27.717Z,0.00
2016-08-14T00:59:28.398Z,0.00
2016-08-14T01:00:28.927Z,0.00
2016-08-14T01:01:29.315Z,0.00
2016-08-14T01:02:29.709Z,0.00
2016-08-14T01:03:30.698Z,0.00
2016-08-14T01:04:31.053Z,0.00
2016-08-14T01:05:31.447Z,0.00
2016-08-14T01:06:31.981Z,0.00
2016-08-14T01:07:32.348Z,0.00
2016-08-14T01:08:33.024Z,0.00
2016-08-14T01:09:33.594Z,0.00
2016-08-14T01:10:34.201Z,0.00
2016-08-14T01:11:34.608Z,0.00
2016-08-14T01:12:35.123Z,0.00
2016-08-14T01:13:35.649Z,0.00
2016-08-14T01:14:36.494Z,0.00
2016-08-14T01:15:36.718Z,0.00
2016-08-14T01:16:37.276Z,0.00
2016-08-14T01:17:37.751Z,0.00
2016-08-14T01:18:38.159Z,0.00
2016-08-14T01:19:38.674Z,0.00
2016-08-14T01:20:41.156Z,0.00
2016-08-14T01:21:40.171Z,0.00
2016-08-14T01:22:40.545Z,0.00
2016-08-14T01:23:40.919Z,0.00
2016-08-14T01:24:41.628Z,0.00
2016-08-14T01:25:41.970Z,0.00
2016-08-14T01:26:42.346Z,0.00
2016-08-14T01:27:43.170Z,0.00
2016-08-14T01:28:43.559Z,0.00
2016-08-14T01:29:44.226Z,0.00
2016-08-14T01:30:44.746Z,0.00
2016-08-14T01:31:45.277Z,0.00
2016-08-14T01:32:45.507Z,0.00
2016-08-14T01:33:46.522Z,0.00
2016-08-14T01:34:46.585Z,0.00
2016-08-14T01:35:47.248Z,0.00
2016-08-14T01:36:47.920Z,0.00
2016-08-14T01:37:48.452Z,0.00
2016-08-14T01:38:48.829Z,0.00
2016-08-14T01:39:49.370Z,0.00
2016-08-14T01:40:50.029Z,0.00
2016-08-14T01:41:50.412Z,0.00
2016-08-14T01:42:51.242Z,0.00
2016-08-14T01:43:51.487Z,0.00
2016-08-14T01:44:52.004Z,0.00
2016-08-14T01:45:52.379Z,0.00
2016-08-14T01:46:53.199Z,0.00
2016-08-14T01:47:53.583Z,0.00
2016-08-14T01:48:54.249Z,0.00
2016-08-14T01:49:54.789Z,0.00
2016-08-14T01:50:55.175Z,0.00
2016-08-14T01:51:55.846Z,0.00
2016-08-14T01:52:56.227Z,0.00
2016-08-14T01:53:56.768Z,0.00
2016-08-14T01:54:57.265Z,0.00
2016-08-14T01:55:57.817Z,0.00
2016-08-14T01:56:58.480Z,0.00
2016-08-14T01:57:59.044Z,0.00
2016-08-14T01:58:59.528Z,0.00
2016-08-14T01:59:59.918Z,0.00
2016-08-14T02:01:00.478Z,0.00
2016-08-14T02:02:00.977Z,0.00
2016-08-14T02:03:01.632Z,0.00
2016-08-14T02:04:01.870Z,0.00
2016-08-14T02:05:02.557Z,0.00
2016-08-14T02:06:03.112Z,0.00
2016-08-14T02:07:03.614Z,0.00
2016-08-14T02:08:04.156Z,0.00
2016-08-14T02:09:04.664Z,0.00
2016-08-14T02:10:05.050Z,0.00
2016-08-14T02:11:05.723Z,0.00
2016-08-14T02:12:06.415Z,0.00
2016-08-14T02:13:06.806Z,0.00
2016-08-14T02:14:07.489Z,0.00
2016-08-14T02:15:08.151Z,0.00
2016-08-14T02:16:08.381Z,0.00
2016-08-14T02:17:08.915Z,0.00
2016-08-14T02:18:09.577Z,0.00
2016-08-14T02:19:09.937Z,0.00
2016-08-14T02:20:10.470Z,0.00
2016-08-14T02:21:11.299Z,0.00
2016-08-14T02:22:11.524Z,0.00
2016-08-14T02:23:12.064Z,0.00
2016-08-14T02:24:12.423Z,0.00
2016-08-14T02:25:13.273Z,0.00
2016-08-14T02:26:13.647Z,0.00
2016-08-14T02:27:14.006Z,0.00
2016-08-14T02:28:14.851Z,0.00
2016-08-14T02:29:15.372Z,0.00
2016-08-14T02:30:16.058Z,0.00
2016-08-14T02:31:16.270Z,0.00
2016-08-14T02:32:16.794Z,0.00
2016-08-14T02:33:17.496Z,0.00
2016-08-14T02:34:17.873Z,0.00
2016-08-14T02:35:18.529Z,0.00
2016-08-14T02:36:19.064Z,0.00
2016-08-14T02:37:19.863Z,0.00
2016-08-14T02:38:20.094Z,0.00
2016-08-14T02:39:20.351Z,0.00
2016-08-14T02:40:22.049Z,0.00
2016-08-14T02:41:21.388Z,0.00
2016-08-14T02:42:22.206Z,0.00
2016-08-14T02:43:22.880Z,0.00
2016-08-14T02:44:23.104Z,0.00
2016-08-14T02:45:23.551Z,0.00
2016-08-14T02:46:24.165Z,0.00
2016-08-14T02:47:24.858Z,0.00
2016-08-14T02:48:25.101Z,0.00
2016-08-14T02:49:25.922Z,0.00
2016-08-14T02:50:26.285Z,0.00
2016-08-14T02:51:26.676Z,0.00
2016-08-14T02:52:27.361Z,0.00
2016-08-14T02:53:28.014Z,0.00
2016-08-14T02:54:28.579Z,0.00
2016-08-14T02:55:29.280Z,0.00
2016-08-14T02:56:29.590Z,0.00
2016-08-14T02:57:30.019Z,0.00
2016-08-14T02:58:30.346Z,0.00
2016-08-14T02:59:31.019Z,0.00
2016-08-14T03:00:31.403Z,0.00
2016-08-14T03:01:32.087Z,0.00
2016-08-14T03:02:32.646Z,0.00
2016-08-14T03:03:33.148Z,0.00
2016-08-14T03:04:33.827Z,0.00
2016-08-14T03:05:34.047Z,0.00
2016-08-14T03:06:34.706Z,0.00
2016-08-14T03:07:35.262Z,0.00
2016-08-14T03:08:35.623Z,0.00
2016-08-14T03:09:36.144Z,0.00
2016-08-14T03:10:37.286Z,0.00
2016-08-14T03:11:37.490Z,0.00
2016-08-14T03:12:39.392Z,0.00
2016-08-14T03:13:38.398Z,0.00
2016-08-14T03:14:39.216Z,0.00
2016-08-14T03:15:39.467Z,0.00
2016-08-14T03:16:40.426Z,0.00
2016-08-14T03:17:40.346Z,0.00
2016-08-14T03:18:41.073Z,0.00
2016-08-14T03:19:41.575Z,0.00
2016-08-14T03:20:41.937Z,0.00
2016-08-14T03:21:42.478Z,0.00
2016-08-14T03:22:43.300Z,0.00
2016-08-14T03:23:43.683Z,0.00
2016-08-14T03:24:44.060Z,0.00
2016-08-14T03:25:44.594Z,0.00
2016-08-14T03:26:45.122Z,0.00
2016-08-14T03:27:45.803Z,0.00
2016-08-14T03:28:46.452Z,0.00
2016-08-14T03:29:46.831Z,0.00
2016-08-14T03:30:47.211Z,0.00
2016-08-14T03:31:48.039Z,0.00
2016-08-14T03:32:48.420Z,0.00
2016-08-14T03:33:49.158Z,0.00
2016-08-14T03:34:49.474Z,0.00
2016-08-14T03:35:49.846Z,0.00
2016-08-14T03:36:50.667Z,0.00
2016-08-14T03:37:51.066Z,0.00
2016-08-14T03:38:51.596Z,0.00
2016-08-14T03:39:52.110Z,0.00
2016-08-14T03:40:52.947Z,0.00
2016-08-14T03:41:53.043Z,0.00
2016-08-14T03:42:53.677Z,0.00
2016-08-14T03:43:54.504Z,0.00
2016-08-14T03:44:54.899Z,0.00
2016-08-14T03:45:55.434Z,0.00
2016-08-14T03:46:55.784Z,0.00
2016-08-14T03:47:56.486Z,0.00
2016-08-14T03:48:57.132Z,0.00
2016-08-14T03:49:57.522Z,0.00
2016-08-14T03:50:57.763Z,0.00
2016-08-14T03:51:58.448Z,0.00
2016-08-14T03:52:58.822Z,0.00
2016-08-14T03:53:59.502Z,0.00
2016-08-14T03:55:00.146Z,0.00
2016-08-14T03:56:00.834Z,0.00
2016-08-14T03:57:01.202Z,0.00
2016-08-14T03:58:01.622Z,0.00
2016-08-14T03:59:02.133Z,0.00
2016-08-14T04:00:02.534Z,0.00
2016-08-14T04:01:03.765Z,0.00
2016-08-14T04:02:03.858Z,0.00
2016-08-14T04:03:04.375Z,0.00
2016-08-14T04:04:04.767Z,0.00
2016-08-14T04:05:05.587Z,0.00
2016-08-14T04:06:06.024Z,0.00
2016-08-14T04:07:06.350Z,0.00
2016-08-14T04:08:06.893Z,0.00
2016-08-14T04:09:07.296Z,0.00
2016-08-14T04:10:08.231Z,0.00
2016-08-14T04:11:08.786Z,0.00
2016-08-14T04:12:08.989Z,0.00
2016-08-14T04:13:09.503Z,0.00
2016-08-14T04:14:10.034Z,0.00
2016-08-14T04:15:10.585Z,0.00
2016-08-14T04:16:11.108Z,0.00
2016-08-14T04:17:11.650Z,0.00
2016-08-14T04:18:12.280Z,0.00
2016-08-14T04:19:12.667Z,0.00
2016-08-14T04:20:13.335Z,0.00
2016-08-14T04:21:13.710Z,0.00
2016-08-14T04:22:14.240Z,0.00
2016-08-14T04:23:15.081Z,0.00
2016-08-14T04:24:15.651Z,0.00
2016-08-14T04:25:15.718Z,0.00
2016-08-14T04:26:16.499Z,1.00
2016-08-14T04:27:16.900Z,1.00
2016-08-14T04:28:17.588Z,1.00
2016-08-14T04:29:18.085Z,1.00
2016-08-14T04:30:18.627Z,1.00
2016-08-14T04:31:18.987Z,1.00
2016-08-14T04:32:19.531Z,1.00
2016-08-14T04:33:19.899Z,1.00
2016-08-14T04:34:20.586Z,1.00
2016-08-14T04:35:21.107Z,1.00
2016-08-14T04:36:21.947Z,1.00
2016-08-14T04:37:22.175Z,1.00
2016-08-14T04:38:22.603Z,1.00
2016-08-14T04:39:23.233Z,1.00
2016-08-14T04:40:23.774Z,2.00
2016-08-14T04:41:24.444Z,2.00
2016-08-14T04:42:25.121Z,2.00
2016-08-14T04:43:25.203Z,2.00
2016-08-14T04:44:26.015Z,2.00
2016-08-14T04:45:26.681Z,2.00
2016-08-14T04:46:28.420Z,2.00
2016-08-14T04:47:27.748Z,3.00
2016-08-14T04:48:27.854Z,3.00
2016-08-14T04:49:28.375Z,3.00
2016-08-14T04:50:29.045Z,3.00
2016-08-14T04:51:29.542Z,3.00
2016-08-14T04:52:30.215Z,3.00
2016-08-14T04:53:30.745Z,4.00
2016-08-14T04:54:30.996Z,4.00
2016-08-14T04:55:31.802Z,5.00
2016-08-14T04:56:32.330Z,5.00
2016-08-14T04:57:32.750Z,5.00
2016-08-14T04:58:33.271Z,5.00
2016-08-14T04:59:33.781Z,5.00
2016-08-14T05:00:34.187Z,6.00
2016-08-14T05:01:34.845Z,6.00
2016-08-14T05:02:35.488Z,6.00
2016-08-14T05:03:36.020Z,6.00
2016-08-14T05:04:36.398Z,7.00
2016-08-14T05:05:37.074Z,7.00
2016-08-14T05:06:37.610Z,7.00
2016-08-14T05:07:37.992Z,7.00
2016-08-14T05:08:38.518Z,7.00
2016-08-14T05:09:39.047Z,7.00
2016-08-14T05:10:39.731Z,7.00
2016-08-14T05:11:40.265Z,7.00
2016-08-14T05:12:40.481Z,7.00
2016-08-14T05:13:41.303Z,8.00
2016-08-14T05:14:41.556Z,8.00
2016-08-14T05:15:42.677Z,8.00
2016-08-14T05:16:44.393Z,9.00
2016-08-14T05:17:43.564Z,9.00
2016-08-14T05:18:43.784Z,9.00
2016-08-14T05:19:44.634Z,10.00
2016-08-14T05:20:44.856Z,10.00
2016-08-14T05:21:45.512Z,10.00
2016-08-14T05:22:46.049Z,11.00
2016-08-14T05:23:46.562Z,11.00
2016-08-14T05:24:47.399Z,12.00
2016-08-14T05:25:47.490Z,12.00
2016-08-14T05:26:48.031Z,12.00
2016-08-14T05:27:48.518Z,12.00
2016-08-14T05:28:49.058Z,13.00
2016-08-14T05:29:49.743Z,15.00
2016-08-14T05:30:49.988Z,15.00
2016-08-14T05:31:50.783Z,15.00
2016-08-14T05:32:51.028Z,14.00
2016-08-14T05:33:51.537Z,15.00
2016-08-14T05:34:52.218Z,14.00
2016-08-14T05:35:52.885Z,14.00
2016-08-14T05:36:53.415Z,14.00
2016-08-14T05:37:53.940Z,13.00
2016-08-14T05:38:54.196Z,14.00
2016-08-14T05:39:54.867Z,14.00
2016-08-14T05:40:55.389Z,15.00
2016-08-14T05:41:56.049Z,17.00
2016-08-14T05:42:56.567Z,16.00
2016-08-14T05:43:57.110Z,21.00
2016-08-14T05:44:57.780Z,30.00
2016-08-14T05:45:58.014Z,25.00
2016-08-14T05:46:58.396Z,22.00
2016-08-14T05:47:59.382Z,19.00
2016-08-14T05:48:59.447Z,20.00
2016-08-14T05:50:00.013Z,29.00
2016-08-14T05:51:00.676Z,24.00
2016-08-14T05:52:01.180Z,16.00
2016-08-14T05:53:01.563Z,25.00
2016-08-14T05:54:02.253Z,18.00
2016-08-14T05:55:02.940Z,18.00
2016-08-14T05:56:03.298Z,20.00
2016-08-14T05:57:04.258Z,43.00
2016-08-14T05:58:04.638Z,41.00
2016-08-14T05:59:04.864Z,24.00
2016-08-14T06:00:05.567Z,31.00
2016-08-14T06:01:06.069Z,25.00
2016-08-14T06:02:06.322Z,22.00
2016-08-14T06:03:07.123Z,19.00
2016-08-14T06:04:07.644Z,28.00
2016-08-14T06:05:07.903Z,15.00
2016-08-14T06:06:08.689Z,13.00
2016-08-14T06:07:09.387Z,13.00
2016-08-14T06:08:09.738Z,13.00
2016-08-14T06:09:10.127Z,12.00
2016-08-14T06:10:10.968Z,12.00
2016-08-14T06:11:11.340Z,12.00
2016-08-14T06:12:11.695Z,9.00
2016-08-14T06:13:12.362Z,8.00
2016-08-14T06:14:12.920Z,7.00
2016-08-14T06:15:13.427Z,7.00
2016-08-14T06:16:13.952Z,7.00
2016-08-14T06:17:14.626Z,7.00
2016-08-14T06:18:14.853Z,7.00
2016-08-14T06:19:15.674Z,7.00
2016-08-14T06:20:15.948Z,8.00
2016-08-14T06:21:16.587Z,9.00
2016-08-14T06:22:16.961Z,10.00
2016-08-14T06:23:17.517Z,10.00
2016-08-14T06:24:18.011Z,11.00
2016-08-14T06:25:18.716Z,11.00
2016-08-14T06:26:18.927Z,12.00
2016-08-14T06:27:20.056Z,12.00
2016-08-14T06:28:20.010Z,12.00
2016-08-14T06:29:20.698Z,12.00
2016-08-14T06:30:21.330Z,12.00
2016-08-14T06:31:21.722Z,12.00
2016-08-14T06:32:22.376Z,11.00
2016-08-14T06:33:22.611Z,11.00
2016-08-14T06:34:23.159Z,10.00
2016-08-14T06:35:23.834Z,11.00
2016-08-14T06:36:24.361Z,11.00
2016-08-14T06:37:24.875Z,12.00
2016-08-14T06:38:25.684Z,12.00
2016-08-14T06:39:25.805Z,13.00
2016-08-14T06:40:26.588Z,12.00
2016-08-14T06:41:26.964Z,11.00
2016-08-14T06:42:27.656Z,10.00
2016-08-14T06:43:28.329Z,9.00
2016-08-14T06:44:28.397Z,8.00
2016-08-14T06:45:29.102Z,7.00
2016-08-14T06:46:29.612Z,7.00
2016-08-14T06:47:30.142Z,7.00
2016-08-14T06:48:30.803Z,7.00
2016-08-14T06:49:31.359Z,7.00
2016-08-14T06:50:31.736Z,7.00
2016-08-14T06:51:32.242Z,7.00
2016-08-14T06:52:32.911Z,7.00
2016-08-14T06:53:33.452Z,7.00
2016-08-14T06:54:33.815Z,8.00
2016-08-14T06:55:34.643Z,8.00
2016-08-14T06:56:35.048Z,8.00
2016-08-14T06:57:35.602Z,8.00
2016-08-14T06:58:35.941Z,9.00
2016-08-14T06:59:36.487Z,9.00
2016-08-14T07:00:37.154Z,9.00
2016-08-14T07:01:37.668Z,9.00
2016-08-14T07:02:38.038Z,9.00
2016-08-14T07:03:38.569Z,9.00
2016-08-14T07:04:38.959Z,9.00
2016-08-14T07:05:39.653Z,9.00
2016-08-14T07:06:40.015Z,9.00
2016-08-14T07:07:40.822Z,9.00
2016-08-14T07:08:41.370Z,9.00
2016-08-14T07:09:42.026Z,9.00
2016-08-14T07:10:43.162Z,9.00
2016-08-14T07:11:42.822Z,8.00
2016-08-14T07:12:43.161Z,8.00
2016-08-14T07:13:44.132Z,8.00
2016-08-14T07:14:44.516Z,8.00
2016-08-14T07:15:44.909Z,9.00
2016-08-14T07:16:45.718Z,9.00
2016-08-14T07:17:46.540Z,9.00
2016-08-14T07:18:46.329Z,10.00
2016-08-14T07:19:47.202Z,10.00
2016-08-14T07:20:47.537Z,12.00
2016-08-14T07:21:48.208Z,13.00
2016-08-14T07:22:48.754Z,17.00
2016-08-14T07:23:48.973Z,20.00
2016-08-14T07:24:49.475Z,19.00
2016-08-14T07:25:50.011Z,23.00
2016-08-14T07:26:50.675Z,14.00
2016-08-14T07:27:51.660Z,14.00
2016-08-14T07:28:51.889Z,13.00
2016-08-14T07:29:52.272Z,13.00
2016-08-14T07:30:52.787Z,11.00
2016-08-14T07:31:53.337Z,10.00
2016-08-14T07:32:54.161Z,10.00
2016-08-14T07:33:54.680Z,9.00
2016-08-14T07:34:54.916Z,10.00
2016-08-14T07:35:55.454Z,10.00
2016-08-14T07:36:55.833Z,10.00
2016-08-14T07:37:56.638Z,9.00
2016-08-14T07:38:57.018Z,9.00
2016-08-14T07:39:57.740Z,8.00
2016-08-14T07:40:58.136Z,8.00
2016-08-14T07:41:58.897Z,8.00
2016-08-14T07:42:58.979Z,8.00
2016-08-14T07:43:59.652Z,8.00
2016-08-14T07:45:00.328Z,9.00
2016-08-14T07:46:00.579Z,9.00
2016-08-14T07:47:01.249Z,9.00
2016-08-14T07:48:01.773Z,11.00
2016-08-14T07:49:02.441Z,14.00
2016-08-14T07:50:02.961Z,17.00
2016-08-14T07:51:03.494Z,19.00
2016-08-14T07:52:04.020Z,21.00
2016-08-14T07:53:04.255Z,24.00
2016-08-14T07:54:05.226Z,28.00
2016-08-14T07:55:05.613Z,31.00
2016-08-14T07:56:06.284Z,36.00
2016-08-14T07:57:06.801Z,30.00
2016-08-14T07:58:07.061Z,25.00
2016-08-14T07:59:07.564Z,24.00
2016-08-14T08:00:08.103Z,24.00
2016-08-14T08:01:08.628Z,22.00
2016-08-14T08:02:09.025Z,22.00
2016-08-14T08:03:09.659Z,23.00
2016-08-14T08:04:10.065Z,24.00
2016-08-14T08:05:10.872Z,26.00
2016-08-14T08:06:11.398Z,27.00
2016-08-14T08:07:11.649Z,31.00
2016-08-14T08:08:12.159Z,31.00
2016-08-14T08:09:12.699Z,22.00
2016-08-14T08:10:13.402Z,20.00
2016-08-14T08:11:14.045Z,19.00
2016-08-14T08:12:14.598Z,18.00
2016-08-14T08:13:14.808Z,16.00
2016-08-14T08:14:15.651Z,14.00
2016-08-14T08:15:15.857Z,13.00
2016-08-14T08:16:16.774Z,12.00
2016-08-14T08:17:17.092Z,12.00
2016-08-14T08:18:17.759Z,12.00
2016-08-14T08:19:17.973Z,12.00
2016-08-14T08:20:18.813Z,13.00
2016-08-14T08:21:19.022Z,14.00
2016-08-14T08:22:19.718Z,15.00
2016-08-14T08:23:20.235Z,18.00
2016-08-14T08:24:20.917Z,20.00
2016-08-14T08:25:21.291Z,21.00
2016-08-14T08:26:21.692Z,21.00
2016-08-14T08:27:22.185Z,22.00
2016-08-14T08:28:22.716Z,22.00
2016-08-14T08:29:23.567Z,22.00
2016-08-14T08:30:24.065Z,24.00
2016-08-14T08:31:24.597Z,26.00
2016-08-14T08:32:25.175Z,28.00
2016-08-14T08:33:25.519Z,29.00
2016-08-14T08:34:26.041Z,31.00
2016-08-14T08:35:26.854Z,32.00
2016-08-14T08:36:27.252Z,32.00
2016-08-14T08:37:27.641Z,30.00
2016-08-14T08:38:28.432Z,26.00
2016-08-14T08:39:28.976Z,23.00
2016-08-14T08:40:29.239Z,22.00
2016-08-14T08:41:29.722Z,21.00
2016-08-14T08:42:31.304Z,18.00
2016-08-14T08:43:30.621Z,15.00
2016-08-14T08:44:31.161Z,13.00
2016-08-14T08:45:31.993Z,12.00
2016-08-14T08:46:32.367Z,12.00
2016-08-14T08:47:32.757Z,15.00
2016-08-14T08:48:33.440Z,18.00
2016-08-14T08:49:33.957Z,21.00
2016-08-14T08:50:34.498Z,24.00
2016-08-14T08:51:35.190Z,24.00
2016-08-14T08:52:35.710Z,23.00
2016-08-14T08:53:36.235Z,26.00
2016-08-14T08:54:36.603Z,35.00
2016-08-14T08:55:37.153Z,37.00
2016-08-14T08:56:37.506Z,31.00
2016-08-14T08:57:38.364Z,27.00
2016-08-14T08:58:39.005Z,25.00
2016-08-14T08:59:39.382Z,27.00
2016-08-14T09:00:39.628Z,36.00
2016-08-14T09:01:40.436Z,41.00
2016-08-14T09:02:40.974Z,66.00
2016-08-14T09:03:41.337Z,57.00
2016-08-14T09:04:41.895Z,36.00
2016-08-14T09:05:42.566Z,44.00
2016-08-14T09:06:43.227Z,53.00
2016-08-14T09:07:43.327Z,35.00
2016-08-14T09:08:43.997Z,66.00
2016-08-14T09:09:44.673Z,38.00
2016-08-14T09:10:45.185Z,64.00
2016-08-14T09:11:45.747Z,71.00
2016-08-14T09:12:47.752Z,61.00
2016-08-14T09:13:46.915Z,59.00
2016-08-14T09:14:47.002Z,58.00
2016-08-14T09:15:47.530Z,63.00
2016-08-14T09:16:48.498Z,55.00
2016-08-14T09:17:49.034Z,51.00
2016-08-14T09:18:49.140Z,34.00
2016-08-14T09:19:49.939Z,39.00
2016-08-14T09:20:50.191Z,42.00
2016-08-14T09:21:50.838Z,38.00
2016-08-14T09:22:51.391Z,40.00
2016-08-14T09:23:51.774Z,37.00
2016-08-14T09:24:52.454Z,43.00
2016-08-14T09:25:53.279Z,42.00
2016-08-14T09:26:53.494Z,34.00
2016-08-14T09:27:54.164Z,36.00
2016-08-14T09:28:54.542Z,48.00
2016-08-14T09:29:55.065Z,55.00
2016-08-14T09:30:55.591Z,61.00
2016-08-14T09:31:56.296Z,39.00
2016-08-14T09:32:56.501Z,45.00
2016-08-14T09:33:57.193Z,40.00
2016-08-14T09:34:58.005Z,37.00
2016-08-14T09:35:58.375Z,35.00
2016-08-14T09:36:58.770Z,36.00
2016-08-14T09:37:59.275Z,33.00
2016-08-14T09:38:59.950Z,41.00
2016-08-14T09:40:00.499Z,50.00
2016-08-14T09:41:01.167Z,53.00
2016-08-14T09:42:01.385Z,56.00
2016-08-14T09:43:01.933Z,56.00
2016-08-14T09:44:02.443Z,38.00
2016-08-14T09:45:03.124Z,67.00
2016-08-14T09:46:03.369Z,73.00
2016-08-14T09:47:04.039Z,73.00
2016-08-14T09:48:04.579Z,68.00
2016-08-14T09:49:05.114Z,64.00
2016-08-14T09:50:05.634Z,73.00
2016-08-14T09:51:06.165Z,65.00
2016-08-14T09:52:06.826Z,51.00
2016-08-14T09:53:07.339Z,42.00
2016-08-14T09:54:07.742Z,33.00
2016-08-14T09:55:08.133Z,43.00
2016-08-14T09:56:08.805Z,30.00
2016-08-14T09:57:09.177Z,26.00
2016-08-14T09:58:09.853Z,25.00
2016-08-14T09:59:10.372Z,26.00
2016-08-14T10:00:11.082Z,33.00
2016-08-14T10:01:11.301Z,29.00
2016-08-14T10:02:11.954Z,28.00
2016-08-14T10:03:12.789Z,26.00
2016-08-14T10:04:13.188Z,27.00
2016-08-14T10:05:13.843Z,27.00
2016-08-14T10:06:14.252Z,27.00
2016-08-14T10:07:14.619Z,26.00
2016-08-14T10:08:14.994Z,26.00
2016-08-14T10:09:15.968Z,27.00
2016-08-14T10:10:16.202Z,27.00
2016-08-14T10:11:16.742Z,30.00
2016-08-14T10:12:17.242Z,40.00
2016-08-14T10:13:17.781Z,31.00
2016-08-14T10:14:18.140Z,32.00
2016-08-14T10:15:18.964Z,31.00
2016-08-14T10:16:21.143Z,32.00
2016-08-14T10:17:20.029Z,32.00
2016-08-14T10:18:20.552Z,44.00
2016-08-14T10:19:20.947Z,36.00
2016-08-14T10:20:21.474Z,38.00
2016-08-14T10:21:22.299Z,49.00
2016-08-14T10:22:22.512Z,30.00
2016-08-14T10:23:22.922Z,30.00
2016-08-14T10:24:23.432Z,34.00
2016-08-14T10:25:24.268Z,34.00
2016-08-14T10:26:24.619Z,35.00
2016-08-14T10:27:25.141Z,35.00
2016-08-14T10:28:25.821Z,40.00
2016-08-14T10:29:26.197Z,38.00
2016-08-14T10:30:27.043Z,40.00
2016-08-14T10:31:27.256Z,36.00
2016-08-14T10:32:27.685Z,35.00
2016-08-14T10:33:28.479Z,34.00
2016-08-14T10:34:29.009Z,30.00
2016-08-14T10:35:29.398Z,28.00
2016-08-14T10:36:30.056Z,27.00
2016-08-14T10:37:30.583Z,27.00
2016-08-14T10:38:30.985Z,27.00
2016-08-14T10:39:31.513Z,27.00
2016-08-14T10:40:32.059Z,29.00
2016-08-14T10:41:32.559Z,29.00
2016-08-14T10:42:33.238Z,30.00
2016-08-14T10:43:33.627Z,30.00
2016-08-14T10:44:34.281Z,44.00
2016-08-14T10:45:34.956Z,33.00
2016-08-14T10:46:35.033Z,30.00
2016-08-14T10:47:35.567Z,44.00
2016-08-14T10:48:36.232Z,36.00
2016-08-14T10:49:36.941Z,32.00
2016-08-14T10:50:37.467Z,33.00
2016-08-14T10:51:37.826Z,34.00
2016-08-14T10:52:38.337Z,39.00
2016-08-14T10:53:39.029Z,38.00
2016-08-14T10:54:39.281Z,34.00
2016-08-14T10:55:40.100Z,31.00
2016-08-14T10:56:40.452Z,46.00
2016-08-14T10:57:41.043Z,39.00
2016-08-14T10:58:41.674Z,42.00
2016-08-14T10:59:42.495Z,46.00
2016-08-14T11:00:42.422Z,46.00
2016-08-14T11:01:43.238Z,53.00
2016-08-14T11:02:43.767Z,44.00
2016-08-14T11:03:44.327Z,44.00
2016-08-14T11:04:44.994Z,47.00
2016-08-14T11:05:45.051Z,50.00
2016-08-14T11:06:45.880Z,51.00
2016-08-14T11:07:46.138Z,37.00
2016-08-14T11:08:46.938Z,50.00
2016-08-14T11:09:47.628Z,57.00
2016-08-14T11:10:47.846Z,39.00
2016-08-14T11:11:48.549Z,28.00
2016-08-14T11:12:48.780Z,39.00
2016-08-14T11:13:49.735Z,47.00
2016-08-14T11:14:50.121Z,43.00
2016-08-14T11:15:50.647Z,62.00
2016-08-14T11:16:51.037Z,43.00
2016-08-14T11:17:51.410Z,35.00
2016-08-14T11:18:52.365Z,33.00
2016-08-14T11:19:52.453Z,32.00
2016-08-14T11:20:53.423Z,32.00
2016-08-14T11:21:53.551Z,31.00
2016-08-14T11:22:54.179Z,34.00
2016-08-14T11:23:54.706Z,54.00
2016-08-14T11:24:55.084Z,38.00
2016-08-14T11:25:55.930Z,54.00
2016-08-14T11:26:56.316Z,35.00
2016-08-14T11:27:56.834Z,36.00
2016-08-14T11:28:57.359Z,44.00
2016-08-14T11:29:57.725Z,44.00
2016-08-14T11:30:58.400Z,46.00
2016-08-14T11:31:58.925Z,65.00
2016-08-14T11:32:59.460Z,59.00
2016-08-14T11:34:00.454Z,46.00
2016-08-14T11:35:00.801Z,44.00
2016-08-14T11:36:01.057Z,35.00
2016-08-14T11:37:01.741Z,33.00
2016-08-14T11:38:02.230Z,36.00
2016-08-14T11:39:02.604Z,33.00
2016-08-14T11:40:03.146Z,34.00
2016-08-14T11:41:03.697Z,52.00
2016-08-14T11:42:04.189Z,39.00
2016-08-14T11:43:04.899Z,60.00
2016-08-14T11:44:05.442Z,47.00
2016-08-14T11:45:05.791Z,64.00
2016-08-14T11:46:06.351Z,62.00
2016-08-14T11:47:06.996Z,53.00
2016-08-14T11:48:07.549Z,49.00
2016-08-14T11:49:07.798Z,36.00
2016-08-14T11:50:08.428Z,35.00
2016-08-14T11:51:09.129Z,40.00
2016-08-14T11:52:09.645Z,50.00
2016-08-14T11:53:10.157Z,49.00
2016-08-14T11:54:10.695Z,45.00
2016-08-14T11:55:11.215Z,41.00
2016-08-14T11:56:11.623Z,62.00
2016-08-14T11:57:11.986Z,35.00
2016-08-14T11:58:12.663Z,34.00
2016-08-14T11:59:13.186Z,36.00
2016-08-14T12:00:13.847Z,38.00
2016-08-14T12:01:14.542Z,33.00
2016-08-14T12:02:14.755Z,30.00
2016-08-14T12:03:15.158Z,36.00
2016-08-14T12:04:15.987Z,37.00
2016-08-14T12:05:16.362Z,31.00
2016-08-14T12:06:17.008Z,30.00
2016-08-14T12:07:17.737Z,34.00
2016-08-14T12:08:17.915Z,31.00
2016-08-14T12:09:18.462Z,35.00
2016-08-14T12:10:19.298Z,36.00
2016-08-14T12:11:19.376Z,35.00
2016-08-14T12:12:20.023Z,28.00
2016-08-14T12:13:20.573Z,28.00
2016-08-14T12:14:21.227Z,27.00
2016-08-14T12:15:21.625Z,28.00
2016-08-14T12:16:22.148Z,29.00
2016-08-14T12:17:22.811Z,44.00
2016-08-14T12:18:23.187Z,29.00
2016-08-14T12:19:24.015Z,33.00
2016-08-14T12:20:24.109Z,30.00
2016-08-14T12:21:24.826Z,30.00
2016-08-14T12:22:25.164Z,30.00
2016-08-14T12:23:25.709Z,44.00
2016-08-14T12:24:26.677Z,31.00
2016-08-14T12:25:27.210Z,30.00
2016-08-14T12:26:27.436Z,32.00
2016-08-14T12:27:27.836Z,29.00
2016-08-14T12:28:28.470Z,47.00
2016-08-14T12:29:29.201Z,44.00
2016-08-14T12:30:29.534Z,46.00
2016-08-14T12:31:30.248Z,48.00
2016-08-14T12:32:30.467Z,41.00
2016-08-14T12:33:30.982Z,37.00
2016-08-14T12:34:31.792Z,41.00
2016-08-14T12:35:32.040Z,26.00
2016-08-14T12:36:32.557Z,47.00
2016-08-14T12:37:33.372Z,39.00
2016-08-14T12:38:33.927Z,27.00
2016-08-14T12:39:34.323Z,37.00
2016-08-14T12:40:35.405Z,45.00
2016-08-14T12:41:35.334Z,45.00
2016-08-14T12:42:36.035Z,32.00
2016-08-14T12:43:36.681Z,45.00
2016-08-14T12:44:37.075Z,42.00
2016-08-14T12:45:37.594Z,26.00
2016-08-14T12:46:37.839Z,27.00
2016-08-14T12:47:38.516Z,24.00
2016-08-14T12:48:38.899Z,30.00
2016-08-14T12:49:39.589Z,37.00
2016-08-14T12:50:39.929Z,23.00
2016-08-14T12:51:40.753Z,45.00
2016-08-14T12:52:41.163Z,22.00
2016-08-14T12:53:41.809Z,22.00
2016-08-14T12:54:42.078Z,27.00
2016-08-14T12:55:42.714Z,24.00
2016-08-14T12:56:43.139Z,46.00
2016-08-14T12:57:43.790Z,26.00
2016-08-14T12:58:44.218Z,27.00
2016-08-14T12:59:44.685Z,25.00
2016-08-14T13:00:45.374Z,23.00
2016-08-14T13:01:45.901Z,22.00
2016-08-14T13:02:46.439Z,21.00
2016-08-14T13:03:46.964Z,39.00
2016-08-14T13:04:47.344Z,20.00
2016-08-14T13:05:48.154Z,21.00
2016-08-14T13:06:48.669Z,20.00
2016-08-14T13:07:49.227Z,20.00
2016-08-14T13:08:49.603Z,21.00
2016-08-14T13:09:50.133Z,20.00
2016-08-14T13:10:50.935Z,19.00
2016-08-14T13:11:51.039Z,19.00